Time;durP1;ratioP1;P1;durP2;ratioP2;P2;SDS_P1;SDS_P2;PMS_P1;PMS_P2;Temp;Humidity;BMP_temperature;BMP_pressure;BME280_temperature;BME280_humidity;BME280_pressure;Samples;Min_cycle;Max_cycle;Signal;HPM_P1;HPM_P2
2024/04/14 00:00:08;;;;;;;4.87;3.20;;;16.90;99.90;;;;;;5347208;26;20441;-71
2024/04/14 00:02:39;;;;;;;5.70;2.80;;;16.90;99.90;;;;;;5350380;26;20488;-71
2024/04/14 00:05:09;;;;;;;5.43;3.20;;;16.90;99.90;;;;;;5349165;26;20747;-70
2024/04/14 00:07:37;;;;;;;5.33;3.07;;;16.80;99.90;;;;;;5350244;26;20399;-70
2024/04/14 00:10:08;;;;;;;14.80;3.50;;;16.80;99.90;;;;;;5349040;26;20482;-70
2024/04/14 00:12:38;;;;;;;5.60;3.27;;;16.70;99.90;;;;;;5350078;26;20470;-70
2024/04/14 00:15:09;;;;;;;6.37;2.90;;;16.70;99.90;;;;;;5347584;26;20782;-70
2024/04/14 00:17:36;;;;;;;5.50;3.10;;;16.70;99.90;;;;;;5349562;26;20832;-70
2024/04/14 00:20:10;;;;;;;5.63;3.13;;;16.70;99.90;;;;;;5349032;26;20433;-70
2024/04/14 00:22:38;;;;;;;6.50;2.97;;;16.60;99.90;;;;;;5347151;26;20553;-71
2024/04/14 00:25:08;;;;;;;6.20;3.40;;;16.60;99.90;;;;;;5349454;26;20510;-70
2024/04/14 00:27:38;;;;;;;5.37;3.27;;;16.60;99.90;;;;;;5346991;26;20970;-70
2024/04/14 00:30:10;;;;;;;4.63;3.00;;;16.60;99.90;;;;;;5347288;26;20453;-70
2024/04/14 00:32:38;;;;;;;6.23;2.93;;;16.50;99.90;;;;;;5350302;26;20918;-70
2024/04/14 00:35:08;;;;;;;5.37;2.87;;;16.50;99.90;;;;;;5348775;26;20531;-70
2024/04/14 00:37:37;;;;;;;6.17;3.13;;;16.50;99.90;;;;;;5349983;26;20387;-71
2024/04/14 00:40:08;;;;;;;4.13;2.70;;;16.40;99.90;;;;;;5347791;26;20455;-70
2024/04/14 00:42:38;;;;;;;5.53;2.70;;;16.40;99.90;;;;;;5346650;26;20457;-71
2024/04/14 00:45:09;;;;;;;6.97;3.10;;;16.40;99.90;;;;;;5348792;26;20453;-71
2024/04/14 00:47:37;;;;;;;6.07;3.10;;;16.40;99.90;;;;;;5349800;26;21045;-70
2024/04/14 00:50:10;;;;;;;6.17;3.33;;;16.30;99.90;;;;;;5348542;26;20438;-70
2024/04/14 00:52:37;;;;;;;6.17;3.30;;;16.30;99.90;;;;;;5349864;26;20470;-70
2024/04/14 00:55:08;;;;;;;3.17;2.70;;;16.30;99.90;;;;;;5348600;26;20490;-70
2024/04/14 00:57:39;;;;;;;3.90;2.60;;;16.30;99.90;;;;;;5350703;26;20435;-70
2024/04/14 01:00:11;;;;;;;7.00;2.97;;;16.30;99.90;;;;;;5347367;26;20502;-70
2024/04/14 01:02:39;;;;;;;7.20;2.73;;;16.20;99.90;;;;;;5349832;26;20464;-71
2024/04/14 01:05:09;;;;;;;5.87;2.93;;;16.20;99.90;;;;;;5348449;26;20446;-70
2024/04/14 01:07:39;;;;;;;3.57;2.53;;;16.20;99.90;;;;;;5348346;26;20417;-70
2024/04/14 01:10:09;;;;;;;7.00;2.93;;;16.20;99.90;;;;;;5348248;26;20465;-70
2024/04/14 01:12:39;;;;;;;5.83;2.80;;;16.20;99.90;;;;;;5349584;26;20407;-70
2024/04/14 01:15:09;;;;;;;6.17;4.00;;;16.10;99.90;;;;;;5348230;26;20679;-70
2024/04/14 01:17:37;;;;;;;5.70;3.30;;;16.10;99.90;;;;;;5346351;26;20501;-70
2024/04/14 01:20:09;;;;;;;5.80;3.60;;;16.10;99.90;;;;;;5348082;26;20496;-70
2024/04/14 01:22:37;;;;;;;7.30;4.00;;;16.00;99.90;;;;;;5346088;26;20457;-70
2024/04/14 01:25:11;;;;;;;7.33;3.70;;;16.00;99.90;;;;;;5348572;26;20454;-70
2024/04/14 01:27:40;;;;;;;6.83;3.73;;;16.00;99.90;;;;;;5349479;26;20402;-70
2024/04/14 01:30:11;;;;;;;7.10;4.07;;;16.00;99.90;;;;;;5347978;26;20877;-70
2024/04/14 01:32:38;;;;;;;7.40;4.30;;;16.00;99.90;;;;;;5346118;26;20598;-70
2024/04/14 01:35:09;;;;;;;7.07;4.07;;;15.90;99.90;;;;;;5347755;26;20573;-70
2024/04/14 01:37:37;;;;;;;6.67;3.90;;;15.90;99.90;;;;;;5349475;26;20669;-70
2024/04/14 01:40:11;;;;;;;6.10;3.87;;;15.90;99.90;;;;;;5348071;26;20450;-70
2024/04/14 01:42:39;;;;;;;7.33;4.23;;;15.80;99.90;;;;;;5347799;26;20559;-70
2024/04/14 01:45:10;;;;;;;9.20;3.80;;;15.80;99.90;;;;;;5347886;26;20523;-70
2024/04/14 01:47:37;;;;;;;7.60;4.13;;;15.80;99.90;;;;;;5349131;26;20394;-70
2024/04/14 01:50:08;;;;;;;6.90;3.30;;;15.80;99.90;;;;;;5347422;26;20608;-70
2024/04/14 01:52:37;;;;;;;9.70;3.90;;;15.70;99.90;;;;;;5349064;26;20410;-71
2024/04/14 01:55:10;;;;;;;7.87;3.47;;;15.70;99.90;;;;;;5348331;26;20971;-70
2024/04/14 01:57:37;;;;;;;4.97;3.30;;;15.60;99.90;;;;;;5349474;26;20371;-71
2024/04/14 02:00:09;;;;;;;6.50;3.47;;;15.60;99.90;;;;;;5348057;26;21037;-71
2024/04/14 02:02:39;;;;;;;6.63;2.87;;;15.60;99.90;;;;;;5349265;26;20374;-70
2024/04/14 02:05:10;;;;;;;6.70;2.80;;;15.50;99.90;;;;;;5347819;26;20495;-70
2024/04/14 02:07:37;;;;;;;4.27;2.57;;;15.50;99.90;;;;;;5348225;26;20547;-71
2024/04/14 02:10:11;;;;;;;3.73;1.90;;;15.40;99.90;;;;;;5347631;26;20465;-70
2024/04/14 02:12:39;;;;;;;7.70;2.13;;;15.40;99.90;;;;;;5349427;26;20402;-71
2024/04/14 02:15:09;;;;;;;6.97;2.20;;;15.30;99.90;;;;;;5347446;26;20502;-71
2024/04/14 02:17:37;;;;;;;3.90;1.70;;;15.20;99.90;;;;;;5348816;26;20398;-70
2024/04/14 02:20:10;;;;;;;5.20;2.40;;;15.10;99.90;;;;;;5346656;26;20702;-71
2024/04/14 02:22:38;;;;;;;6.80;2.50;;;15.10;99.90;;;;;;5348632;26;21015;-70
2024/04/14 02:25:10;;;;;;;5.30;2.50;;;15.10;99.90;;;;;;5347373;26;20513;-70
2024/04/14 02:27:38;;;;;;;7.77;2.30;;;15.00;99.90;;;;;;5348546;26;20395;-70
2024/04/14 02:30:09;;;;;;;5.30;2.20;;;14.90;99.90;;;;;;5345243;26;21001;-70
2024/04/14 02:32:36;;;;;;;4.23;2.13;;;14.80;99.90;;;;;;5345295;26;20453;-71
2024/04/14 02:35:07;;;;;;;5.50;2.53;;;14.80;99.90;;;;;;5345221;26;20453;-70
2024/04/14 02:37:35;;;;;;;8.07;2.00;;;14.70;99.90;;;;;;5345203;26;20495;-70
2024/04/14 02:40:06;;;;;;;9.20;2.70;;;14.60;99.90;;;;;;5347113;26;20466;-70
2024/04/14 02:42:37;;;;;;;6.00;2.30;;;14.50;99.90;;;;;;5345035;26;20506;-70
2024/04/14 02:45:09;;;;;;;6.77;2.63;;;14.50;99.90;;;;;;5345085;26;20488;-70
2024/04/14 02:47:37;;;;;;;8.90;3.00;;;14.40;99.90;;;;;;5345098;26;20457;-70
2024/04/14 02:50:08;;;;;;;6.20;2.00;;;14.40;99.90;;;;;;5346713;26;20469;-71
2024/04/14 02:52:35;;;;;;;4.50;1.93;;;14.30;99.90;;;;;;5348643;26;20430;-70
2024/04/14 02:55:06;;;;;;;4.77;2.30;;;14.30;99.90;;;;;;5344854;26;20502;-71
2024/04/14 02:57:36;;;;;;;6.50;2.50;;;14.20;99.90;;;;;;5347966;26;20952;-70
2024/04/14 03:00:07;;;;;;;6.63;2.27;;;14.20;99.90;;;;;;5346863;26;20446;-70
2024/04/14 03:02:35;;;;;;;8.27;2.37;;;14.20;99.90;;;;;;5349053;26;20995;-70
2024/04/14 03:05:06;;;;;;;5.83;1.90;;;14.20;99.90;;;;;;5349951;26;20441;-70
2024/04/14 03:07:33;;;;;;;6.47;2.77;;;14.20;99.90;;;;;;5348083;26;20966;-70
2024/04/14 03:10:03;;;;;;;9.70;3.20;;;14.10;99.90;;;;;;5350051;26;20492;-70
2024/04/14 03:12:30;;;;;;;7.20;2.40;;;14.10;99.90;;;;;;5351325;26;20395;-70
2024/04/14 03:15:03;;;;;;;5.80;2.00;;;14.00;99.90;;;;;;5349969;26;20457;-70
2024/04/14 03:17:31;;;;;;;5.60;2.23;;;14.00;99.90;;;;;;5350314;26;20437;-71
2024/04/14 03:20:00;;;;;;;10.80;3.33;;;14.00;99.90;;;;;;5349984;26;21141;-70
2024/04/14 03:22:28;;;;;;;5.63;2.30;;;13.90;99.90;;;;;;5349674;26;21015;-70
2024/04/14 03:24:58;;;;;;;5.03;1.63;;;13.90;99.90;;;;;;5349994;26;20509;-70
2024/04/14 03:27:25;;;;;;;5.53;1.90;;;13.80;99.90;;;;;;5349685;26;20509;-70
2024/04/14 03:29:55;;;;;;;8.17;2.50;;;13.80;99.90;;;;;;5349574;26;20453;-70
2024/04/14 03:32:25;;;;;;;4.57;1.93;;;13.80;99.90;;;;;;5347666;26;20471;-70
2024/04/14 03:34:55;;;;;;;5.53;1.73;;;13.70;99.90;;;;;;5349533;26;21011;-70
2024/04/14 03:37:25;;;;;;;5.13;1.77;;;13.70;99.90;;;;;;5350486;26;20402;-70
2024/04/14 03:39:55;;;;;;;6.13;2.13;;;13.60;99.90;;;;;;5349545;26;20560;-70
2024/04/14 03:42:25;;;;;;;8.37;2.30;;;13.60;99.90;;;;;;5349578;26;21034;-70
2024/04/14 03:44:54;;;;;;;4.50;1.90;;;13.50;99.90;;;;;;5350443;26;20431;-70
2024/04/14 03:47:24;;;;;;;7.43;2.47;;;13.50;99.90;;;;;;5348910;26;20389;-70
2024/04/14 03:49:55;;;;;;;6.50;2.20;;;13.50;99.90;;;;;;5350340;26;20282;-70
2024/04/14 03:52:25;;;;;;;7.43;2.53;;;13.40;99.90;;;;;;5350632;26;20728;-70
2024/04/14 03:54:53;;;;;;;6.50;2.10;;;13.40;99.90;;;;;;5349950;26;20429;-70
2024/04/14 03:57:23;;;;;;;4.50;1.97;;;13.50;99.90;;;;;;5349330;26;20275;-70
2024/04/14 03:59:50;;;;;;;7.23;2.40;;;13.40;99.90;;;;;;5349201;26;20473;-70
2024/04/14 04:02:20;;;;;;;8.93;2.70;;;13.30;99.90;;;;;;5349170;26;20445;-70
2024/04/14 04:04:48;;;;;;;5.83;2.30;;;13.30;99.90;;;;;;5349454;26;20495;-70
2024/04/14 04:07:20;;;;;;;6.63;2.70;;;13.30;99.90;;;;;;5347340;26;21037;-70
2024/04/14 04:09:50;;;;;;;8.10;2.30;;;13.20;99.90;;;;;;5349454;26;20453;-70
2024/04/14 04:12:21;;;;;;;6.90;3.07;;;13.20;99.90;;;;;;5349053;26;20442;-70
2024/04/14 04:14:51;;;;;;;10.23;2.97;;;13.10;99.90;;;;;;5350127;26;20434;-70
2024/04/14 04:17:21;;;;;;;6.60;2.10;;;13.10;99.90;;;;;;5348873;26;20569;-70
2024/04/14 04:19:48;;;;;;;10.50;3.10;;;13.00;99.90;;;;;;5348985;26;20839;-70
2024/04/14 04:22:20;;;;;;;6.77;2.37;;;13.00;99.90;;;;;;5349011;26;20490;-70
2024/04/14 04:24:48;;;;;;;8.13;3.07;;;12.90;99.90;;;;;;5349210;26;20465;-70
2024/04/14 04:27:18;;;;;;;6.33;2.47;;;12.90;99.90;;;;;;5348979;26;20497;-70
2024/04/14 04:29:46;;;;;;;7.83;2.90;;;12.90;99.90;;;;;;5348814;26;20833;-70
2024/04/14 04:32:17;;;;;;;12.73;2.77;;;12.90;99.90;;;;;;5348952;26;20561;-70
2024/04/14 04:34:45;;;;;;;8.17;2.40;;;12.80;99.90;;;;;;5350086;26;20410;-70
2024/04/14 04:37:15;;;;;;;7.40;2.33;;;12.80;99.90;;;;;;5347028;26;20898;-70
2024/04/14 04:39:45;;;;;;;7.60;3.07;;;12.80;99.90;;;;;;5346979;26;20493;-70
2024/04/14 04:42:15;;;;;;;9.60;3.80;;;12.70;99.90;;;;;;5348679;26;20445;-70
2024/04/14 04:44:43;;;;;;;9.23;3.20;;;12.70;99.90;;;;;;5348686;26;20505;-70
2024/04/14 04:47:12;;;;;;;8.10;2.43;;;12.60;99.90;;;;;;5348752;26;21097;-70
2024/04/14 04:49:40;;;;;;;8.73;2.60;;;12.60;99.90;;;;;;5348621;26;20506;-70
2024/04/14 04:52:10;;;;;;;7.30;2.67;;;12.60;99.90;;;;;;5348706;26;20494;-70
2024/04/14 04:54:39;;;;;;;6.17;3.20;;;12.60;99.90;;;;;;5348613;26;20446;-70
2024/04/14 04:57:11;;;;;;;8.60;2.53;;;12.60;99.90;;;;;;5348526;26;20438;-70
2024/04/14 04:59:39;;;;;;;7.10;2.37;;;12.50;99.90;;;;;;5349801;26;20450;-70
2024/04/14 05:02:09;;;;;;;7.83;2.90;;;12.50;99.90;;;;;;5348493;26;20510;-70
2024/04/14 05:04:36;;;;;;;7.07;2.30;;;12.50;99.90;;;;;;5348420;26;20865;-71
2024/04/14 05:07:06;;;;;;;9.20;3.13;;;12.50;99.90;;;;;;5348472;26;20595;-71
2024/04/14 05:09:34;;;;;;;4.60;2.30;;;12.50;99.90;;;;;;5348264;26;20593;-71
2024/04/14 05:12:04;;;;;;;7.80;2.83;;;12.50;99.90;;;;;;5348372;26;20441;-71
2024/04/14 05:14:34;;;;;;;11.10;2.80;;;12.50;99.90;;;;;;5346557;26;20500;-70
2024/04/14 05:17:04;;;;;;;5.90;2.60;;;12.40;99.90;;;;;;5348291;26;20484;-70
2024/04/14 05:19:31;;;;;;;9.23;3.10;;;12.40;99.90;;;;;;5348245;26;20457;-70
2024/04/14 05:22:01;;;;;;;9.80;3.17;;;12.40;99.90;;;;;;5348302;26;20449;-70
2024/04/14 05:24:29;;;;;;;8.53;2.97;;;12.40;99.90;;;;;;5347425;26;20879;-70
2024/04/14 05:26:59;;;;;;;10.50;3.10;;;12.30;99.90;;;;;;5346446;26;20494;-70
2024/04/14 05:29:27;;;;;;;6.83;2.80;;;12.30;99.90;;;;;;5346408;26;20481;-70
2024/04/14 05:32:00;;;;;;;9.97;3.30;;;12.30;99.90;;;;;;5348186;26;20530;-70
2024/04/14 05:34:27;;;;;;;9.90;3.40;;;12.20;99.90;;;;;;5348935;26;20352;-70
2024/04/14 05:36:57;;;;;;;8.20;2.80;;;12.20;99.90;;;;;;5348053;26;20721;-70
2024/04/14 05:39:25;;;;;;;8.20;3.10;;;12.20;99.90;;;;;;5348232;26;20901;-70
2024/04/14 05:41:55;;;;;;;23.47;4.37;;;12.10;99.90;;;;;;5348052;26;20841;-70
2024/04/14 05:44:23;;;;;;;10.23;2.93;;;12.10;99.90;;;;;;5349354;26;20394;-70
2024/04/14 05:46:54;;;;;;;8.50;3.40;;;12.10;99.90;;;;;;5346101;26;20458;-70
2024/04/14 05:49:24;;;;;;;9.03;2.60;;;12.10;99.90;;;;;;5345966;26;20504;-70
2024/04/14 05:51:55;;;;;;;8.00;3.00;;;12.10;99.90;;;;;;5349279;26;20748;-70
2024/04/14 05:54:22;;;;;;;9.90;3.30;;;12.10;99.90;;;;;;5348377;26;20967;-70
2024/04/14 05:56:52;;;;;;;8.17;3.10;;;12.10;99.90;;;;;;5347779;26;20911;-70
2024/04/14 05:59:20;;;;;;;9.10;2.80;;;12.10;99.90;;;;;;5347775;26;20506;-70
2024/04/14 06:01:50;;;;;;;9.93;3.23;;;12.10;99.90;;;;;;5347724;26;20884;-70
2024/04/14 06:04:18;;;;;;;7.30;3.37;;;12.10;99.90;;;;;;5347759;26;20622;-70
2024/04/14 06:06:52;;;;;;;10.20;2.90;;;12.10;99.90;;;;;;5347671;26;21046;-70
2024/04/14 06:09:21;;;;;;;10.20;2.83;;;12.10;99.90;;;;;;5348934;26;20557;-70
2024/04/14 06:11:51;;;;;;;13.00;2.90;;;12.10;99.90;;;;;;5347599;26;20527;-70
2024/04/14 06:14:19;;;;;;;7.40;2.57;;;12.10;99.90;;;;;;5349005;26;20601;-70
2024/04/14 06:16:49;;;;;;;6.00;2.43;;;12.10;99.90;;;;;;5347483;26;20457;-70
2024/04/14 06:19:17;;;;;;;9.60;2.80;;;12.20;99.90;;;;;;5347358;26;20461;-68
2024/04/14 06:21:50;;;;;;;7.83;2.80;;;12.20;99.90;;;;;;5347264;26;20445;-67
2024/04/14 06:24:19;;;;;;;8.20;3.10;;;12.30;99.90;;;;;;5347867;26;20458;-68
2024/04/14 06:26:49;;;;;;;12.20;3.83;;;12.40;99.90;;;;;;5347234;26;20438;-69
2024/04/14 06:29:19;;;;;;;11.57;2.97;;;12.50;99.90;;;;;;5347278;26;20453;-70
2024/04/14 06:31:46;;;;;;;9.13;3.00;;;12.60;99.90;;;;;;5347249;26;20854;-70
2024/04/14 06:34:16;;;;;;;9.17;2.60;;;12.70;99.90;;;;;;5345355;26;20838;-70
2024/04/14 06:36:43;;;;;;;6.60;2.43;;;12.80;99.90;;;;;;5347343;26;20438;-70
2024/04/14 06:39:16;;;;;;;8.90;2.40;;;12.80;99.90;;;;;;5348371;26;20481;-70
2024/04/14 06:41:43;;;;;;;8.07;2.13;;;12.90;99.90;;;;;;5351215;26;20398;-70
2024/04/14 06:44:13;;;;;;;6.10;2.77;;;12.90;99.90;;;;;;5350141;26;20446;-70
2024/04/14 06:46:41;;;;;;;9.20;3.10;;;12.90;99.90;;;;;;5350165;26;20557;-70
2024/04/14 06:49:10;;;;;;;5.30;2.10;;;12.90;99.90;;;;;;5348287;26;20921;-70
2024/04/14 06:51:38;;;;;;;4.83;2.43;;;12.90;99.90;;;;;;5350194;26;20974;-70
2024/04/14 06:54:08;;;;;;;9.20;2.70;;;13.00;99.90;;;;;;5350162;26;20560;-71
2024/04/14 06:56:38;;;;;;;5.20;2.10;;;13.00;99.90;;;;;;5350284;26;20560;-70
2024/04/14 06:59:08;;;;;;;7.10;2.60;;;13.10;99.90;;;;;;5350100;26;20498;-70
2024/04/14 07:01:35;;;;;;;6.93;2.60;;;13.20;99.90;;;;;;5350111;26;20502;-71
2024/04/14 07:04:06;;;;;;;9.57;3.20;;;13.30;99.90;;;;;;5349935;26;20441;-70
2024/04/14 07:06:33;;;;;;;7.40;2.33;;;13.30;99.90;;;;;;5350962;26;20931;-70
2024/04/14 07:09:03;;;;;;;9.00;2.80;;;13.40;99.90;;;;;;5349912;26;20445;-70
2024/04/14 07:11:30;;;;;;;7.90;2.00;;;13.40;99.90;;;;;;5349856;26;20445;-70
2024/04/14 07:14:03;;;;;;;6.77;2.60;;;13.50;99.90;;;;;;5350073;26;20497;-70
2024/04/14 07:16:32;;;;;;;11.43;3.00;;;13.60;99.90;;;;;;5351004;26;20470;-70
2024/04/14 07:19:02;;;;;;;9.57;3.20;;;13.60;99.90;;;;;;5350182;26;20523;-70
2024/04/14 07:21:30;;;;;;;7.53;2.30;;;13.70;99.90;;;;;;5348037;26;20659;-70
2024/04/14 07:24:00;;;;;;;7.17;2.47;;;13.70;99.90;;;;;;5349948;26;20543;-70
2024/04/14 07:26:27;;;;;;;6.00;2.10;;;13.70;99.90;;;;;;5349861;26;20552;-70
2024/04/14 07:28:57;;;;;;;5.70;2.40;;;13.60;99.90;;;;;;5349981;26;20441;-70
2024/04/14 07:31:27;;;;;;;7.33;2.20;;;13.50;99.90;;;;;;5349715;26;20541;-70
2024/04/14 07:34:00;;;;;;;8.47;2.50;;;13.40;99.90;;;;;;5347919;26;20568;-70
2024/04/14 07:36:29;;;;;;;5.53;2.90;;;13.40;99.90;;;;;;5350834;26;20461;-70
2024/04/14 07:38:59;;;;;;;5.60;1.93;;;13.40;99.90;;;;;;5349885;26;20504;-70
2024/04/14 07:41:26;;;;;;;5.17;1.90;;;13.30;99.90;;;;;;5349604;26;20500;-70
2024/04/14 07:43:56;;;;;;;4.80;1.77;;;13.30;99.90;;;;;;5347906;26;20461;-70
2024/04/14 07:46:27;;;;;;;5.53;1.57;;;13.40;99.90;;;;;;5350732;26;20398;-70
2024/04/14 07:48:57;;;;;;;6.67;2.37;;;13.40;99.90;;;;;;5347657;26;20509;-70
2024/04/14 07:51:24;;;;;;;7.00;2.27;;;13.40;99.90;;;;;;5350148;26;20457;-70
2024/04/14 07:53:55;;;;;;;6.60;2.30;;;13.40;99.90;;;;;;5347889;26;20508;-70
2024/04/14 07:56:22;;;;;;;6.03;2.10;;;13.40;99.90;;;;;;5347793;26;20461;-70
2024/04/14 07:58:52;;;;;;;5.00;1.97;;;13.40;99.90;;;;;;5349562;26;20438;-70
2024/04/14 08:01:19;;;;;;;7.77;2.00;;;13.50;99.90;;;;;;5350015;26;20490;-70
2024/04/14 08:03:52;;;;;;;7.40;2.33;;;13.50;99.90;;;;;;5348500;26;20498;-70
2024/04/14 08:06:24;;;;;;;5.70;2.00;;;13.60;99.90;;;;;;5351463;26;20430;-70
2024/04/14 08:08:54;;;;;;;8.07;2.50;;;13.70;99.90;;;;;;5349674;26;20497;-70
2024/04/14 08:11:24;;;;;;;6.03;1.90;;;13.70;99.90;;;;;;5347544;26;20552;-70
2024/04/14 08:13:53;;;;;;;6.17;2.17;;;13.80;99.90;;;;;;5349664;26;20445;-70
2024/04/14 08:16:24;;;;;;;8.00;2.00;;;13.80;99.90;;;;;;5349330;26;20441;-70
2024/04/14 08:18:54;;;;;;;3.90;1.40;;;13.90;99.90;;;;;;5347392;26;20509;-70
2024/04/14 08:21:24;;;;;;;5.10;1.67;;;13.90;99.90;;;;;;5348977;26;20496;-70
2024/04/14 08:23:51;;;;;;;5.93;1.67;;;13.90;99.80;;;;;;5347077;26;20508;-69
2024/04/14 08:26:22;;;;;;;4.80;1.90;;;14.00;99.80;;;;;;5348896;26;20489;-69
2024/04/14 08:28:49;;;;;;;4.07;1.87;;;14.00;99.60;;;;;;5349471;26;20490;-70
2024/04/14 08:31:19;;;;;;;4.57;1.60;;;14.10;99.50;;;;;;5348803;26;20442;-70
2024/04/14 08:33:46;;;;;;;5.40;1.97;;;14.10;99.40;;;;;;5348748;26;20501;-70
2024/04/14 08:36:19;;;;;;;3.43;1.60;;;14.10;99.70;;;;;;5348742;26;20879;-70
2024/04/14 08:38:48;;;;;;;6.20;1.80;;;14.10;99.50;;;;;;5349677;26;20496;-70
2024/04/14 08:41:21;;;;;;;5.97;2.27;;;14.20;99.80;;;;;;5348725;26;20490;-70
2024/04/14 08:43:49;;;;;;;7.23;2.33;;;14.20;99.40;;;;;;5349942;26;20410;-70
2024/04/14 08:46:20;;;;;;;6.70;1.87;;;14.30;99.20;;;;;;5348479;26;20498;-70
2024/04/14 08:48:48;;;;;;;7.63;2.40;;;14.30;99.20;;;;;;5348901;26;20979;-70
2024/04/14 08:51:24;;;;;;;3.73;1.40;;;14.30;99.10;;;;;;5348555;26;20442;-70
2024/04/14 08:53:55;;;;;;;4.73;1.50;;;14.30;98.70;;;;;;5349640;26;20406;-69
2024/04/14 08:56:30;;;;;;;4.23;1.70;;;14.30;98.30;;;;;;5348956;26;20486;-70
2024/04/14 08:59:03;;;;;;;5.57;1.80;;;14.20;98.20;;;;;;5349457;26;20398;-70
2024/04/14 09:01:33;;;;;;;4.33;1.97;;;14.20;98.40;;;;;;5348733;26;20501;-70
2024/04/14 09:04:03;;;;;;;5.78;1.80;;;14.30;98.50;;;;;;5348573;26;20368;-70
2024/04/14 09:06:37;;;;;;;4.50;1.53;;;14.40;97.70;;;;;;5348233;26;20223;-70
2024/04/14 09:09:05;;;;;;;4.37;1.90;;;14.50;97.90;;;;;;5349587;26;20497;-70
2024/04/14 09:11:35;;;;;;;6.10;1.60;;;14.50;98.00;;;;;;5348333;26;20494;-69
2024/04/14 09:14:02;;;;;;;6.83;1.97;;;14.50;97.90;;;;;;5348175;26;20488;-69
2024/04/14 09:16:32;;;;;;;5.23;1.83;;;14.40;97.70;;;;;;5346382;26;20454;-69
2024/04/14 09:18:59;;;;;;;6.30;2.00;;;14.50;97.50;;;;;;5349366;26;20402;-70
2024/04/14 09:21:30;;;;;;;5.00;2.00;;;14.40;97.40;;;;;;5346262;26;20461;-67
2024/04/14 09:24:00;;;;;;;4.20;1.77;;;14.40;97.30;;;;;;5348908;26;20506;-67
2024/04/14 09:26:30;;;;;;;4.10;1.80;;;14.40;97.40;;;;;;5348127;26;20438;-67
2024/04/14 09:29:02;;;;;;;6.77;1.50;;;14.40;97.40;;;;;;5346162;26;20446;-67
2024/04/14 09:31:32;;;;;;;10.00;1.90;;;14.40;97.40;;;;;;5346206;26;20449;-69
2024/04/14 09:34:00;;;;;;;7.10;2.53;;;14.50;97.50;;;;;;5348030;26;20835;-69
2024/04/14 09:36:30;;;;;;;5.93;2.00;;;14.50;97.60;;;;;;5347924;26;20449;-69
2024/04/14 09:39:03;;;;;;;5.43;1.80;;;14.50;97.70;;;;;;5346021;26;20445;-70
2024/04/14 09:41:33;;;;;;;8.83;2.10;;;14.50;97.90;;;;;;5349542;26;20497;-70
2024/04/14 09:44:02;;;;;;;3.73;1.80;;;14.60;97.90;;;;;;5349660;26;20471;-70
2024/04/14 09:46:34;;;;;;;6.90;1.97;;;14.60;98.00;;;;;;5347711;26;20516;-70
2024/04/14 09:49:03;;;;;;;5.20;1.40;;;14.70;97.90;;;;;;5349126;26;20414;-70
2024/04/14 09:51:34;;;;;;;5.83;1.67;;;14.70;97.80;;;;;;5347788;26;20446;-69
2024/04/14 09:54:05;;;;;;;3.47;1.70;;;14.70;97.80;;;;;;5349227;26;20787;-70
2024/04/14 09:56:35;;;;;;;5.77;1.63;;;14.70;97.70;;;;;;5349271;26;20608;-70
2024/04/14 09:59:03;;;;;;;3.37;1.47;;;14.70;97.80;;;;;;5347635;26;20611;-70
2024/04/14 10:01:36;;;;;;;4.00;1.60;;;14.70;97.80;;;;;;5345835;26;20584;-70
2024/04/14 10:04:05;;;;;;;4.13;1.53;;;14.80;97.90;;;;;;5347848;26;20454;-69
2024/04/14 10:06:38;;;;;;;4.23;1.87;;;14.90;97.60;;;;;;5345600;26;20842;-70
2024/04/14 10:09:10;;;;;;;4.67;1.20;;;15.00;97.70;;;;;;5349038;26;20442;-70
2024/04/14 10:11:40;;;;;;;6.20;1.77;;;15.10;97.80;;;;;;5348947;26;21027;-70
2024/04/14 10:14:12;;;;;;;6.87;2.27;;;15.20;97.70;;;;;;5347424;26;20525;-68
2024/04/14 10:16:42;;;;;;;7.37;2.10;;;15.20;97.40;;;;;;5348938;26;20398;-69
2024/04/14 10:19:09;;;;;;;7.00;1.73;;;15.20;97.40;;;;;;5345442;26;20470;-70
2024/04/14 10:21:39;;;;;;;32.43;30.10;;;15.20;97.20;;;;;;5347394;26;20498;-69
2024/04/14 10:24:10;;;;;;;4.40;1.40;;;15.20;97.20;;;;;;5347049;26;20538;-70
2024/04/14 10:26:40;;;;;;;3.83;1.90;;;15.20;97.30;;;;;;5348268;26;20383;-69
2024/04/14 10:29:10;;;;;;;5.37;3.00;;;15.20;97.30;;;;;;5348566;26;20449;-70
2024/04/14 10:31:40;;;;;;;5.47;1.90;;;15.10;97.10;;;;;;5347307;26;20530;-70
2024/04/14 10:34:28;;;;;;;5.17;1.93;;;15.10;97.00;;;;;;5348424;26;20398;-69
2024/04/14 10:36:58;;;;;;;4.70;2.53;;;15.00;97.20;;;;;;5345420;26;20832;-69
2024/04/14 10:39:31;;;;;;;2.63;1.30;;;15.00;97.10;;;;;;5347512;26;20568;-69
2024/04/14 10:42:01;;;;;;;4.10;1.50;;;15.00;97.20;;;;;;5348277;26;20402;-68
2024/04/14 10:44:29;;;;;;;5.50;1.30;;;15.10;97.30;;;;;;5348049;26;20466;-69
2024/04/14 10:46:59;;;;;;;5.30;2.00;;;15.10;97.50;;;;;;5344984;26;20454;-69
2024/04/14 10:49:27;;;;;;;4.57;1.70;;;15.10;97.50;;;;;;5345395;26;20543;-69
2024/04/14 10:51:57;;;;;;;3.20;1.43;;;15.20;97.50;;;;;;5345148;26;20461;-68
2024/04/14 10:54:24;;;;;;;3.60;1.40;;;15.30;97.20;;;;;;5347001;26;21026;-69
2024/04/14 10:56:58;;;;;;;4.90;1.90;;;15.20;97.30;;;;;;5346773;26;20555;-70
2024/04/14 10:59:25;;;;;;;3.87;1.40;;;15.20;97.30;;;;;;5344854;26;20518;-69
2024/04/14 11:01:56;;;;;;;5.23;1.70;;;15.30;97.20;;;;;;5346783;26;20441;-70
2024/04/14 11:04:24;;;;;;;5.43;1.67;;;15.20;97.30;;;;;;5346692;26;20438;-70
2024/04/14 11:06:54;;;;;;;4.70;1.90;;;15.20;97.20;;;;;;5346703;26;20445;-70
2024/04/14 11:09:23;;;;;;;5.40;1.83;;;15.20;97.10;;;;;;5347650;26;20898;-70
2024/04/14 11:11:54;;;;;;;8.73;1.93;;;15.20;97.10;;;;;;5344863;26;20457;-70
2024/04/14 11:14:27;;;;;;;4.10;1.43;;;15.20;97.10;;;;;;5347594;26;20442;-70
2024/04/14 11:16:55;;;;;;;3.57;1.53;;;15.20;96.60;;;;;;5347792;26;20771;-70
2024/04/14 11:19:25;;;;;;;4.27;1.47;;;15.20;96.50;;;;;;5344560;26;20522;-70
2024/04/14 11:21:55;;;;;;;4.00;1.27;;;15.20;96.40;;;;;;5347557;26;20465;-70
2024/04/14 11:24:25;;;;;;;5.87;1.80;;;15.20;96.30;;;;;;5349637;26;20901;-70
2024/04/14 11:26:55;;;;;;;4.17;1.23;;;15.20;96.00;;;;;;5349736;26;20803;-70
2024/04/14 11:29:26;;;;;;;3.77;1.40;;;15.10;96.00;;;;;;5347984;26;20476;-70
2024/04/14 11:31:57;;;;;;;3.00;1.40;;;15.10;96.10;;;;;;5350516;26;20450;-70
2024/04/14 11:34:24;;;;;;;5.13;1.47;;;15.10;95.90;;;;;;5350813;26;20446;-70
2024/04/14 11:36:55;;;;;;;4.27;1.77;;;15.10;96.00;;;;;;5349787;26;20505;-70
2024/04/14 11:39:25;;;;;;;7.00;1.40;;;15.10;96.00;;;;;;5350642;26;21045;-70
2024/04/14 11:41:55;;;;;;;3.70;1.30;;;15.20;96.10;;;;;;5349480;26;20875;-70
2024/04/14 11:44:25;;;;;;;3.70;1.70;;;15.30;96.30;;;;;;5349767;26;20498;-70
2024/04/14 11:46:55;;;;;;;2.40;1.20;;;15.40;95.80;;;;;;5350529;26;20459;-70
2024/04/14 11:49:23;;;;;;;3.80;1.90;;;15.40;95.70;;;;;;5347631;26;21049;-70
2024/04/14 11:51:53;;;;;;;5.30;1.67;;;15.40;95.50;;;;;;5349642;26;20497;-70
2024/04/14 11:54:20;;;;;;;3.90;1.50;;;15.40;95.50;;;;;;5349387;26;20498;-70
2024/04/14 11:56:51;;;;;;;4.00;1.40;;;15.30;95.40;;;;;;5349452;26;20442;-70
2024/04/14 11:59:20;;;;;;;2.77;1.30;;;15.30;95.40;;;;;;5349251;26;20498;-70
2024/04/14 12:01:53;;;;;;;7.17;1.80;;;15.30;95.30;;;;;;5347455;26;20493;-70
2024/04/14 12:04:23;;;;;;;4.23;2.00;;;15.30;95.30;;;;;;5350483;26;20395;-71
2024/04/14 12:06:50;;;;;;;3.83;1.53;;;15.30;95.40;;;;;;5347372;26;20865;-71
2024/04/14 12:09:20;;;;;;;4.80;1.73;;;15.30;95.50;;;;;;5349321;26;20531;-71
2024/04/14 12:11:48;;;;;;;4.87;1.87;;;15.30;95.40;;;;;;5349902;26;20445;-71
2024/04/14 12:14:18;;;;;;;4.90;1.57;;;15.40;95.20;;;;;;5349304;26;20446;-71
2024/04/14 12:16:47;;;;;;;4.20;1.40;;;15.40;95.10;;;;;;5349327;26;20558;-71
2024/04/14 12:19:20;;;;;;;4.80;1.60;;;15.40;95.00;;;;;;5349414;26;20832;-71
2024/04/14 12:21:47;;;;;;;2.67;1.13;;;15.30;95.10;;;;;;5347389;26;20450;-71
2024/04/14 12:24:18;;;;;;;5.20;1.83;;;15.30;95.10;;;;;;5349484;26;20570;-71
2024/04/14 12:26:45;;;;;;;4.33;1.70;;;15.30;95.20;;;;;;5347231;26;20582;-71
2024/04/14 12:29:15;;;;;;;3.00;1.40;;;15.30;95.20;;;;;;5348958;26;21022;-71
2024/04/14 12:31:45;;;;;;;5.43;2.07;;;15.20;95.10;;;;;;5350101;26;20419;-71
2024/04/14 12:34:16;;;;;;;4.73;1.40;;;15.20;94.90;;;;;;5348098;26;20799;-71
2024/04/14 12:36:46;;;;;;;5.10;1.90;;;15.20;94.70;;;;;;5346771;26;20454;-71
2024/04/14 12:39:16;;;;;;;4.77;1.90;;;15.10;94.60;;;;;;5347344;26;20510;-68
2024/04/14 12:41:56;;;;;;;11.43;10.37;;;15.10;94.70;;;;;;5349887;26;20398;-71
2024/04/14 12:44:26;;;;;;;6.10;3.10;;;15.10;94.90;;;;;;5349146;26;20814;-71
2024/04/14 12:46:53;;;;;;;7.90;4.73;;;15.10;95.00;;;;;;5346901;26;20829;-70
2024/04/14 12:49:26;;;;;;;4.60;2.90;;;15.10;95.10;;;;;;5348657;26;20505;-70
2024/04/14 12:51:58;;;;;;;5.13;2.17;;;15.10;95.10;;;;;;5349898;26;20407;-70
2024/04/14 12:54:29;;;;;;;4.00;1.30;;;15.20;95.30;;;;;;5349806;26;20410;-70
2024/04/14 12:56:56;;;;;;;4.77;2.27;;;15.20;95.30;;;;;;5349835;26;20394;-70